createdAt,value
2019-02-06T00:00:02.630Z,100
2019-02-06T00:05:14.800Z,100
2019-02-06T00:10:02.812Z,100
2019-02-06T00:15:02.670Z,100
2019-02-06T00:20:02.613Z,100
2019-02-06T00:25:02.667Z,100
2019-02-06T00:30:02.868Z,100
2019-02-06T00:35:02.888Z,100
2019-02-06T00:40:02.646Z,100
2019-02-06T00:45:02.635Z,100
2019-02-06T00:50:02.766Z,100
2019-02-06T00:55:02.638Z,100
2019-02-06T01:00:02.647Z,100
2019-02-06T01:05:03.263Z,100
2019-02-06T01:10:02.642Z,100
2019-02-06T01:15:02.886Z,100
2019-02-06T01:20:03.279Z,100
2019-02-06T01:25:02.793Z,100
2019-02-06T01:30:02.864Z,100
2019-02-06T01:35:03.265Z,100
2019-02-06T01:40:02.629Z,100
2019-02-06T01:45:02.971Z,100
2019-02-06T01:50:03.244Z,100
2019-02-06T01:55:02.799Z,100
2019-02-06T02:00:02.679Z,100
2019-02-06T02:05:03.250Z,100
2019-02-06T02:10:02.687Z,100
2019-02-06T02:15:02.790Z,100
2019-02-06T02:20:03.106Z,100
2019-02-06T02:25:02.688Z,100
2019-02-06T02:30:02.709Z,100
2019-02-06T02:35:02.709Z,100
2019-02-06T02:40:02.713Z,100
2019-02-06T02:45:02.655Z,100
2019-02-06T02:50:02.694Z,100
2019-02-06T02:55:02.693Z,100
2019-02-06T03:00:02.834Z,100
2019-02-06T03:05:02.898Z,100
2019-02-06T03:10:02.887Z,100
2019-02-06T03:15:02.734Z,100
2019-02-06T03:20:02.715Z,100
2019-02-06T03:25:02.901Z,100
2019-02-06T03:30:02.984Z,100
2019-02-06T03:35:02.673Z,100
2019-02-06T03:40:02.725Z,100
2019-02-06T03:45:02.975Z,100
2019-02-06T03:50:02.868Z,100
2019-02-06T03:55:03.021Z,100
2019-02-06T04:00:03.066Z,100
2019-02-06T04:05:02.721Z,100
2019-02-06T04:10:02.919Z,100
2019-02-06T04:15:03.334Z,100
2019-02-06T04:20:02.756Z,100
2019-02-06T04:25:02.925Z,100
2019-02-06T04:30:03.027Z,100
2019-02-06T04:35:02.885Z,100
2019-02-06T04:40:02.919Z,100
2019-02-06T04:45:02.968Z,100
2019-02-06T04:50:02.991Z,100
2019-02-06T04:55:02.904Z,100
2019-02-06T05:00:02.972Z,100
2019-02-06T05:05:02.996Z,100
2019-02-06T05:10:02.913Z,100
2019-02-06T05:15:02.918Z,100
2019-02-06T05:20:02.793Z,100
2019-02-06T05:25:03.077Z,100
2019-02-06T05:30:02.950Z,100
2019-02-06T05:35:03.022Z,100
2019-02-06T05:40:02.748Z,100
2019-02-06T05:45:02.760Z,100
2019-02-06T05:50:02.817Z,100
2019-02-06T05:55:05.230Z,100
2019-02-06T06:00:02.824Z,100
2019-02-06T06:05:02.980Z,100
2019-02-06T06:10:03.041Z,100
2019-02-06T06:15:02.902Z,100
2019-02-06T06:20:02.972Z,100
2019-02-06T06:25:02.892Z,100
2019-02-06T06:30:02.819Z,100
2019-02-06T06:35:02.979Z,100
2019-02-06T06:40:03.026Z,100
2019-02-06T06:45:02.825Z,100
2019-02-06T06:50:03.034Z,100
2019-02-06T06:55:03.021Z,100
2019-02-06T07:00:02.979Z,100
2019-02-06T07:05:05.944Z,100
2019-02-06T07:10:03.022Z,100
2019-02-06T07:15:02.849Z,100
2019-02-06T07:20:02.989Z,100
2019-02-06T07:25:02.873Z,100
2019-02-06T07:30:02.852Z,100
2019-02-06T07:35:02.988Z,100
2019-02-06T07:40:03.178Z,100
2019-02-06T07:45:02.816Z,100
2019-02-06T07:50:02.997Z,100
2019-02-06T07:55:03.525Z,100
2019-02-06T08:00:02.856Z,100
2019-02-06T08:05:02.861Z,100
2019-02-06T08:10:03.513Z,100
2019-02-06T08:15:03.788Z,100
2019-02-06T08:20:02.832Z,100
2019-02-06T08:25:03.415Z,100
2019-02-06T08:30:03.067Z,100
2019-02-06T08:35:02.870Z,100
2019-02-06T08:40:02.897Z,100
2019-02-06T08:45:02.875Z,100
2019-02-06T08:50:02.889Z,100
2019-02-06T08:55:03.163Z,100
2019-02-06T09:00:02.914Z,99.8
2019-02-06T09:05:03.116Z,99.4
2019-02-06T09:10:02.906Z,100
2019-02-06T09:15:03.077Z,100
2019-02-06T09:20:02.916Z,100
2019-02-06T09:25:03.156Z,100
2019-02-06T09:30:02.897Z,100
2019-02-06T09:35:03.100Z,100
2019-02-06T09:40:03.140Z,100
2019-02-06T09:45:02.913Z,100
2019-02-06T09:50:02.942Z,100
2019-02-06T09:55:02.914Z,100
2019-02-06T10:00:02.937Z,100
2019-02-06T10:05:02.943Z,100
2019-02-06T10:10:02.928Z,100
2019-02-06T10:15:03.099Z,100
2019-02-06T10:20:02.928Z,99.9
2019-02-06T10:25:03.158Z,99.8
2019-02-06T10:30:04.325Z,99.4
2019-02-06T10:35:03.588Z,99.4
2019-02-06T10:40:03.148Z,98.7
2019-02-06T10:45:03.191Z,99.3
2019-02-06T10:50:03.382Z,99.6
2019-02-06T10:55:03.136Z,98.8
2019-02-06T11:00:03.038Z,98.2
2019-02-06T11:05:03.493Z,98.4
2019-02-06T11:10:03.149Z,98.1
2019-02-06T11:15:03.138Z,97.8
2019-02-06T11:20:03.414Z,96.9
2019-02-06T11:25:04.961Z,96.6
2019-02-06T11:30:03.196Z,96.3
2019-02-06T11:35:03.227Z,95.8
2019-02-06T11:40:03.114Z,95.1
2019-02-06T11:45:02.982Z,95.2
2019-02-06T11:50:03.110Z,94.5
2019-02-06T11:55:03.013Z,95.5
2019-02-06T12:00:03.194Z,95.4
2019-02-06T12:05:03.219Z,95.7
2019-02-06T12:10:10.399Z,96
2019-02-06T12:15:03.012Z,96
2019-02-06T12:20:02.999Z,95.7
2019-02-06T12:25:03.111Z,94.9
2019-02-06T12:30:03.009Z,95.8
2019-02-06T12:35:03.249Z,95.3
2019-02-06T12:40:03.156Z,95.6
2019-02-06T12:45:03.018Z,95
2019-02-06T12:50:03.592Z,93.9
2019-02-06T12:55:03.028Z,94.6
2019-02-06T13:00:03.047Z,94.6
2019-02-06T13:05:03.507Z,94.2
2019-02-06T13:10:03.255Z,94.4
2019-02-06T13:15:03.177Z,94.8
2019-02-06T13:20:03.511Z,94.2
2019-02-06T13:25:03.260Z,95.2
2019-02-06T13:30:03.162Z,94.3
2019-02-06T13:35:03.233Z,94.6
2019-02-06T13:40:03.052Z,94.5
2019-02-06T13:45:03.033Z,95
2019-02-06T13:50:03.271Z,95.7
2019-02-06T13:55:03.259Z,95.9
2019-02-06T14:00:03.182Z,96
2019-02-06T14:05:03.050Z,96.7
2019-02-06T14:10:03.269Z,96.6
2019-02-06T14:15:03.067Z,96.5
2019-02-06T14:20:03.062Z,96.4
2019-02-06T14:25:03.063Z,97
2019-02-06T14:30:03.445Z,96.4
2019-02-06T14:35:03.108Z,96.5
2019-02-06T14:40:03.262Z,97.4
2019-02-06T14:45:03.321Z,97.6
2019-02-06T14:50:03.071Z,97.8
2019-02-06T14:55:03.269Z,97.9
2019-02-06T15:00:03.213Z,98.3
2019-02-06T15:05:03.108Z,98.8
2019-02-06T15:10:03.115Z,98.9
2019-02-06T15:15:03.310Z,98.6
2019-02-06T15:20:03.364Z,98.7
2019-02-06T15:25:03.666Z,98.8
2019-02-06T15:30:03.121Z,99
2019-02-06T15:35:03.363Z,99.4
2019-02-06T15:40:03.114Z,99.6
2019-02-06T15:45:03.116Z,100
2019-02-06T15:50:03.233Z,99.8
2019-02-06T15:55:03.259Z,100
2019-02-06T16:00:03.601Z,100
2019-02-06T16:05:03.106Z,100
2019-02-06T16:10:03.139Z,100
2019-02-06T16:15:03.297Z,100
2019-02-06T16:20:06.938Z,100
2019-02-06T16:25:03.380Z,100
2019-02-06T16:30:03.166Z,100
2019-02-06T16:35:03.567Z,100
2019-02-06T16:40:03.081Z,100
2019-02-06T16:45:03.399Z,100
2019-02-06T16:50:03.414Z,100
2019-02-06T16:55:03.186Z,100
2019-02-06T17:00:03.307Z,100
2019-02-06T17:05:03.295Z,100
2019-02-06T17:10:03.436Z,100
2019-02-06T17:15:03.343Z,100
2019-02-06T17:20:03.390Z,100
2019-02-06T17:25:06.068Z,100
2019-02-06T17:30:03.781Z,100
2019-02-06T17:35:03.166Z,100
2019-02-06T17:40:03.393Z,100
2019-02-06T17:45:03.211Z,100
2019-02-06T17:50:03.343Z,100
2019-02-06T17:55:03.205Z,100
2019-02-06T18:00:03.218Z,100
2019-02-06T18:05:03.249Z,100
2019-02-06T18:10:03.248Z,100
2019-02-06T18:15:03.192Z,100
2019-02-06T18:20:03.218Z,100
2019-02-06T18:25:03.209Z,100
2019-02-06T18:30:03.641Z,100
2019-02-06T18:35:04.463Z,100
2019-02-06T18:40:03.223Z,100
2019-02-06T18:45:03.623Z,100
2019-02-06T18:50:03.613Z,100
2019-02-06T18:55:03.741Z,100
2019-02-06T19:00:03.663Z,100
2019-02-06T19:05:03.661Z,100
2019-02-06T19:10:03.965Z,100
2019-02-06T19:15:03.644Z,100
2019-02-06T19:20:03.615Z,100
2019-02-06T19:25:03.631Z,100
2019-02-06T19:30:03.819Z,100
2019-02-06T19:35:03.965Z,100
2019-02-06T19:40:03.693Z,100
2019-02-06T19:45:03.683Z,100
2019-02-06T19:50:03.723Z,100
2019-02-06T19:55:04.246Z,100
2019-02-06T20:00:03.671Z,100
2019-02-06T20:05:03.714Z,100
2019-02-06T20:10:03.699Z,100
2019-02-06T20:15:03.694Z,100
2019-02-06T20:20:03.695Z,100
2019-02-06T20:25:04.010Z,100
2019-02-06T20:30:03.742Z,100
2019-02-06T20:35:03.787Z,100
2019-02-06T20:40:04.020Z,100
2019-02-06T20:45:03.689Z,100
2019-02-06T20:50:03.739Z,100
2019-02-06T20:55:03.866Z,100
2019-02-06T21:00:03.758Z,100
2019-02-06T21:05:03.733Z,100
2019-02-06T21:10:03.672Z,100
2019-02-06T21:15:03.652Z,100
2019-02-06T21:20:03.668Z,100
2019-02-06T21:25:03.685Z,100
2019-02-06T21:30:03.651Z,100
2019-02-06T21:35:03.814Z,100
2019-02-06T21:40:04.313Z,100
2019-02-06T21:45:03.666Z,100
2019-02-06T21:50:03.863Z,100
2019-02-06T21:55:04.191Z,100
2019-02-06T22:00:03.752Z,100
2019-02-06T22:05:03.667Z,100
2019-02-06T22:10:03.809Z,100
2019-02-06T22:15:03.731Z,100
2019-02-06T22:20:03.682Z,100
2019-02-06T22:25:03.687Z,100
2019-02-06T22:30:03.721Z,100
2019-02-06T22:35:03.726Z,100
2019-02-06T22:40:03.698Z,100
2019-02-06T22:45:03.715Z,100
2019-02-06T22:50:03.899Z,100
2019-02-06T22:55:03.737Z,100
2019-02-06T23:00:04.147Z,100
2019-02-06T23:05:04.165Z,100
2019-02-06T23:10:03.713Z,100
2019-02-06T23:15:03.839Z,100
2019-02-06T23:20:03.892Z,100
2019-02-06T23:25:03.906Z,100
2019-02-06T23:30:03.840Z,100
2019-02-06T23:35:03.867Z,100
2019-02-06T23:40:03.738Z,100
2019-02-06T23:45:03.731Z,100
2019-02-06T23:50:03.766Z,100
2019-02-06T23:55:03.923Z,100
